Time;durP1;ratioP1;P1;durP2;ratioP2;P2;SDS_P1;SDS_P2;PMS_P1;PMS_P2;Temp;Humidity;BMP_temperature;BMP_pressure;BME280_temperature;BME280_humidity;BME280_pressure;Samples;Min_cycle;Max_cycle;Signal;HPM_P1;HPM_P2
2021/08/23 00:00:58;;;;;;;14.30;12.77;;;17.30;99.90;;;;;;5070713;28;20190;-67
2021/08/23 00:03:24;;;;;;;15.93;14.33;;;17.30;99.90;;;;;;5071219;28;20194;-68
2021/08/23 00:05:50;;;;;;;14.80;13.30;;;17.40;99.90;;;;;;5070865;28;20678;-69
2021/08/23 00:08:17;;;;;;;14.10;12.63;;;17.40;99.90;;;;;;5071181;28;20170;-69
2021/08/23 00:10:43;;;;;;;13.83;12.73;;;17.30;99.90;;;;;;5070730;28;20228;-68
2021/08/23 00:13:09;;;;;;;14.03;12.73;;;17.30;99.90;;;;;;5071064;28;20170;-67
2021/08/23 00:15:37;;;;;;;14.60;12.30;;;17.30;99.90;;;;;;5071012;28;20206;-67
2021/08/23 00:18:04;;;;;;;14.37;13.17;;;17.20;99.90;;;;;;5073483;28;20249;-68
2021/08/23 00:21:12;;;;;;;13.43;12.20;;;17.20;99.90;;;;;;5074390;28;20178;-67
2021/08/23 00:23:20;;;;;;;14.60;13.00;;;17.10;99.90;;;;;;5068753;28;20186;-68
2021/08/23 00:25:46;;;;;;;14.57;13.27;;;17.10;99.90;;;;;;5074337;28;20645;-68
2021/08/23 00:28:12;;;;;;;13.57;12.47;;;17.00;99.90;;;;;;5074677;28;20258;-69
2021/08/23 00:30:38;;;;;;;14.40;13.10;;;17.10;99.90;;;;;;5074178;28;20174;-68
2021/08/23 00:33:04;;;;;;;14.87;13.40;;;17.00;99.90;;;;;;5074594;28;20265;-69
2021/08/23 00:35:30;;;;;;;15.37;13.73;;;17.00;99.90;;;;;;5074335;28;20733;-68
2021/08/23 00:37:56;;;;;;;14.30;12.90;;;17.00;99.90;;;;;;5074186;28;20182;-68
2021/08/23 00:40:24;;;;;;;15.83;13.83;;;17.10;99.90;;;;;;5072665;28;20185;-68
2021/08/23 00:42:51;;;;;;;15.37;13.87;;;17.10;99.90;;;;;;5074448;28;20185;-67
2021/08/23 00:45:21;;;;;;;14.53;13.20;;;17.10;99.90;;;;;;5074031;28;20737;-67
2021/08/23 00:47:47;;;;;;;15.30;13.70;;;17.20;99.90;;;;;;5072944;28;20577;-67
2021/08/23 00:50:13;;;;;;;14.60;13.10;;;17.30;99.90;;;;;;5073832;28;20174;-67
2021/08/23 00:52:39;;;;;;;14.90;13.40;;;17.30;99.90;;;;;;5074288;28;20227;-67
2021/08/23 00:55:05;;;;;;;14.67;13.17;;;17.50;99.90;;;;;;5073849;28;20191;-67
2021/08/23 00:57:31;;;;;;;14.73;13.43;;;17.50;99.90;;;;;;5074169;28;20656;-67
2021/08/23 00:59:56;;;;;;;14.23;12.70;;;17.50;99.90;;;;;;5073443;28;20182;-67
2021/08/23 01:02:59;;;;;;;16.07;14.47;;;17.60;99.90;;;;;;5074062;28;20639;-67
2021/08/23 01:05:30;;;;;;;15.13;13.60;;;17.50;99.90;;;;;;5060299;28;20213;-67
2021/08/23 01:07:59;;;;;;;14.33;12.93;;;17.30;99.90;;;;;;5073945;28;20205;-68
2021/08/23 01:10:31;;;;;;;14.93;13.53;;;17.20;99.90;;;;;;5073534;28;20170;-67
2021/08/23 01:12:57;;;;;;;15.10;13.80;;;17.20;99.90;;;;;;5073994;28;20178;-69
2021/08/23 01:15:23;;;;;;;18.63;13.93;;;17.30;99.90;;;;;;5073269;28;20247;-69
2021/08/23 01:17:54;;;;;;;14.33;12.93;;;17.40;99.90;;;;;;5073623;28;20170;-69
2021/08/23 01:20:20;;;;;;;14.97;13.47;;;17.40;99.90;;;;;;5073208;28;20564;-69
2021/08/23 01:22:48;;;;;;;14.80;13.10;;;17.50;99.90;;;;;;5073709;28;20181;-69
2021/08/23 01:25:16;;;;;;;14.23;12.83;;;17.50;99.90;;;;;;5073206;28;20263;-69
2021/08/23 01:27:52;;;;;;;13.20;11.90;;;17.60;99.90;;;;;;5073420;28;20170;-67
2021/08/23 01:30:18;;;;;;;14.17;12.77;;;17.70;99.90;;;;;;5073039;28;20178;-68
2021/08/23 01:32:44;;;;;;;14.83;13.27;;;17.70;99.90;;;;;;5073605;28;20695;-68
2021/08/23 01:35:09;;;;;;;13.33;12.13;;;17.80;99.90;;;;;;5072822;28;20311;-67
2021/08/23 01:37:35;;;;;;;12.57;11.27;;;17.80;99.90;;;;;;5073169;28;20190;-68
2021/08/23 01:40:04;;;;;;;14.53;13.17;;;17.90;99.90;;;;;;5072699;28;20262;-69
2021/08/23 01:42:31;;;;;;;12.70;11.50;;;17.90;99.90;;;;;;5073287;28;20173;-69
2021/08/23 01:44:57;;;;;;;12.77;11.67;;;17.90;99.90;;;;;;5072980;28;20230;-68
2021/08/23 01:47:22;;;;;;;13.67;12.37;;;18.00;99.90;;;;;;5071739;28;20177;-68
2021/08/23 01:49:48;;;;;;;14.17;12.50;;;18.00;99.90;;;;;;5072509;28;20170;-67
2021/08/23 01:52:14;;;;;;;13.60;12.27;;;18.00;99.90;;;;;;5073197;28;20166;-68
2021/08/23 01:54:41;;;;;;;12.97;11.70;;;18.00;99.90;;;;;;5072807;28;20655;-68
2021/08/23 01:57:07;;;;;;;12.67;11.40;;;18.00;99.90;;;;;;5072955;28;20170;-67
2021/08/23 01:59:33;;;;;;;12.53;11.33;;;18.00;99.90;;;;;;5072602;28;20172;-67
2021/08/23 02:01:58;;;;;;;13.50;12.40;;;18.00;99.90;;;;;;5072615;28;20209;-67
2021/08/23 02:04:24;;;;;;;14.07;12.67;;;18.00;99.90;;;;;;5072517;28;20201;-67
2021/08/23 02:06:49;;;;;;;12.90;11.77;;;17.90;99.90;;;;;;5072839;28;20206;-68
2021/08/23 02:09:15;;;;;;;13.10;11.90;;;17.90;99.90;;;;;;5072406;28;20166;-68
2021/08/23 02:11:41;;;;;;;13.40;11.10;;;17.80;99.90;;;;;;5072419;28;20178;-69
2021/08/23 02:14:07;;;;;;;13.97;12.70;;;17.80;99.90;;;;;;5072421;28;20218;-69
2021/08/23 02:16:32;;;;;;;13.13;11.90;;;17.80;99.90;;;;;;5072521;28;20185;-68
2021/08/23 02:18:58;;;;;;;13.50;12.20;;;17.70;99.90;;;;;;5072595;28;20170;-66
2021/08/23 02:21:23;;;;;;;12.93;11.87;;;17.80;99.90;;;;;;5072025;28;20193;-67
2021/08/23 02:23:52;;;;;;;13.93;12.53;;;17.80;99.90;;;;;;5072325;28;20258;-67
2021/08/23 02:26:18;;;;;;;12.67;11.37;;;17.80;99.90;;;;;;5072097;28;20552;-67
2021/08/23 02:28:44;;;;;;;13.73;12.43;;;17.80;99.90;;;;;;5072468;28;20177;-67
2021/08/23 02:31:09;;;;;;;12.90;11.80;;;17.90;99.90;;;;;;5071738;28;20204;-67
2021/08/23 02:33:35;;;;;;;13.07;11.97;;;17.90;99.90;;;;;;5072267;28;20229;-67
2021/08/23 02:36:00;;;;;;;15.20;12.27;;;17.90;99.90;;;;;;5070544;28;20181;-69
2021/08/23 02:38:27;;;;;;;14.90;13.60;;;17.90;99.90;;;;;;5072049;28;20178;-69
2021/08/23 02:40:52;;;;;;;13.57;12.37;;;17.80;99.90;;;;;;5071135;28;20591;-69
2021/08/23 02:43:18;;;;;;;13.63;12.33;;;17.80;99.90;;;;;;5071991;28;20236;-69
2021/08/23 02:45:43;;;;;;;13.53;12.33;;;17.80;99.90;;;;;;5071825;28;20292;-68
2021/08/23 02:48:09;;;;;;;15.07;13.57;;;17.90;99.90;;;;;;5071857;28;20185;-69
2021/08/23 02:50:35;;;;;;;13.73;12.43;;;17.80;99.90;;;;;;5071577;28;20170;-68
2021/08/23 02:53:00;;;;;;;15.07;12.33;;;17.70;99.90;;;;;;5072093;28;20689;-68
2021/08/23 02:55:26;;;;;;;14.07;12.87;;;17.60;99.90;;;;;;5071641;28;20197;-68
2021/08/23 02:57:51;;;;;;;15.03;12.53;;;17.60;99.90;;;;;;5071530;28;20179;-67
2021/08/23 03:00:17;;;;;;;13.93;12.73;;;17.50;99.90;;;;;;5070576;28;20184;-68
2021/08/23 03:02:43;;;;;;;14.40;13.00;;;17.50;99.90;;;;;;5071660;28;20585;-68
2021/08/23 03:05:08;;;;;;;13.47;12.07;;;17.40;99.90;;;;;;5071431;28;20193;-68
2021/08/23 03:07:34;;;;;;;13.43;12.03;;;17.40;99.90;;;;;;5071928;28;20174;-69
2021/08/23 03:09:59;;;;;;;13.77;12.57;;;17.40;99.90;;;;;;5071193;28;20212;-68
2021/08/23 03:12:25;;;;;;;13.77;12.40;;;17.40;99.90;;;;;;5071734;28;20808;-67
2021/08/23 03:14:51;;;;;;;13.80;12.40;;;17.30;99.90;;;;;;5071704;28;20269;-67
2021/08/23 03:17:16;;;;;;;14.93;13.53;;;17.20;99.90;;;;;;5071416;28;20642;-67
2021/08/23 03:19:42;;;;;;;15.53;14.13;;;17.00;99.90;;;;;;5071548;28;20535;-67
2021/08/23 03:22:07;;;;;;;16.00;14.40;;;16.90;99.90;;;;;;5071171;28;20718;-67
2021/08/23 03:24:33;;;;;;;15.70;14.20;;;16.80;99.90;;;;;;5071586;28;20288;-67
2021/08/23 03:26:59;;;;;;;15.30;13.70;;;16.70;99.90;;;;;;5071036;28;20197;-67
2021/08/23 03:29:25;;;;;;;15.40;14.00;;;16.60;99.90;;;;;;5071125;28;20284;-67
2021/08/23 03:31:51;;;;;;;15.47;14.07;;;16.70;99.90;;;;;;5070150;28;20268;-68
2021/08/23 03:34:16;;;;;;;16.07;14.37;;;16.60;99.90;;;;;;5071107;28;20217;-67
2021/08/23 03:36:47;;;;;;;16.00;14.40;;;16.70;99.90;;;;;;5071629;28;20174;-67
2021/08/23 03:39:16;;;;;;;16.53;14.93;;;16.60;99.90;;;;;;5071434;28;20516;-67
2021/08/23 03:41:42;;;;;;;15.63;14.23;;;16.60;99.90;;;;;;5070770;28;20539;-69
2021/08/23 03:44:07;;;;;;;19.77;15.50;;;16.40;99.90;;;;;;5071148;28;20205;-68
2021/08/23 03:46:33;;;;;;;20.60;15.27;;;16.30;99.90;;;;;;5071089;28;20209;-67
2021/08/23 03:49:03;;;;;;;16.23;14.60;;;16.30;99.90;;;;;;5071473;28;20174;-68
2021/08/23 03:51:28;;;;;;;16.80;15.10;;;16.20;99.90;;;;;;5070899;28;20205;-68
2021/08/23 03:53:54;;;;;;;16.70;15.13;;;16.10;99.90;;;;;;5075200;28;20217;-67
2021/08/23 03:56:20;;;;;;;16.97;15.33;;;16.10;99.90;;;;;;5075102;28;20185;-68
2021/08/23 03:58:46;;;;;;;15.50;13.83;;;16.00;99.90;;;;;;5075295;28;20659;-68
2021/08/23 04:01:11;;;;;;;18.53;15.80;;;15.90;99.90;;;;;;5074666;28;20581;-67
2021/08/23 04:03:37;;;;;;;17.20;15.00;;;15.90;99.90;;;;;;5075132;28;20236;-68
2021/08/23 04:06:03;;;;;;;18.03;16.10;;;16.00;99.90;;;;;;5074771;28;20642;-68
2021/08/23 04:08:31;;;;;;;17.83;15.93;;;16.00;99.90;;;;;;5075329;28;20178;-67
2021/08/23 04:10:57;;;;;;;16.00;14.43;;;16.00;99.90;;;;;;5074658;28;20646;-68
2021/08/23 04:13:22;;;;;;;20.70;17.07;;;16.10;99.90;;;;;;5074926;28;20258;-67
2021/08/23 04:15:48;;;;;;;18.30;16.17;;;16.10;99.90;;;;;;5074723;28;20205;-67
2021/08/23 04:18:14;;;;;;;22.10;17.03;;;16.20;99.90;;;;;;5074701;28;20639;-67
2021/08/23 04:20:40;;;;;;;20.70;16.60;;;16.20;99.90;;;;;;5074090;28;20235;-67
2021/08/23 04:23:06;;;;;;;18.70;16.67;;;16.20;99.90;;;;;;5074811;28;20315;-67
2021/08/23 04:25:31;;;;;;;20.00;16.67;;;16.30;99.90;;;;;;5144380;22;20316;-67
2021/08/23 04:27:57;;;;;;;23.50;17.03;;;16.30;99.90;;;;;;5094664;28;20181;-67
2021/08/23 04:30:23;;;;;;;22.23;17.87;;;16.30;99.90;;;;;;5094048;28;20185;-67
2021/08/23 04:32:49;;;;;;;25.60;18.63;;;16.50;99.90;;;;;;5094402;28;20174;-67
2021/08/23 04:35:14;;;;;;;23.20;18.17;;;16.50;99.90;;;;;;5093965;28;20197;-67
2021/08/23 04:37:40;;;;;;;27.57;19.77;;;16.50;99.90;;;;;;5094729;28;20545;-67
2021/08/23 04:40:07;;;;;;;23.93;17.77;;;16.50;99.90;;;;;;5093825;28;20169;-67
2021/08/23 04:42:33;;;;;;;22.90;18.40;;;16.70;99.90;;;;;;5094445;28;20171;-68
2021/08/23 04:44:59;;;;;;;23.07;18.70;;;16.70;99.90;;;;;;5094193;28;20272;-67
2021/08/23 04:47:25;;;;;;;23.67;18.67;;;16.80;99.90;;;;;;5094425;28;20684;-67
2021/08/23 04:49:50;;;;;;;21.40;18.03;;;16.80;99.90;;;;;;5093108;28;20181;-66
2021/08/23 04:52:16;;;;;;;19.73;17.63;;;16.80;99.90;;;;;;5094173;28;20188;-67
2021/08/23 04:54:41;;;;;;;23.83;20.43;;;16.90;99.90;;;;;;5094462;28;20190;-67
2021/08/23 04:57:07;;;;;;;25.37;18.47;;;17.00;99.90;;;;;;5094174;28;20649;-67
2021/08/23 04:59:33;;;;;;;22.33;18.63;;;17.00;99.90;;;;;;5094159;28;20182;-66
2021/08/23 05:01:58;;;;;;;21.77;17.97;;;17.00;99.90;;;;;;5093290;28;20180;-66
2021/08/23 05:04:24;;;;;;;21.10;17.47;;;16.90;99.90;;;;;;5093515;28;20201;-66
2021/08/23 05:06:50;;;;;;;24.40;19.07;;;16.90;99.90;;;;;;5094056;28;20737;-67
2021/08/23 05:09:15;;;;;;;20.30;16.97;;;16.90;99.90;;;;;;5094069;28;20261;-66
2021/08/23 05:11:41;;;;;;;24.20;18.23;;;16.80;99.90;;;;;;5093849;28;20573;-67
2021/08/23 05:14:06;;;;;;;19.97;17.87;;;16.80;99.90;;;;;;5093900;28;20194;-67
2021/08/23 05:16:32;;;;;;;24.73;19.13;;;16.80;99.90;;;;;;5093056;28;20227;-67
2021/08/23 05:18:58;;;;;;;27.60;20.73;;;16.80;99.90;;;;;;5094046;28;20165;-66
2021/08/23 05:21:24;;;;;;;21.93;18.67;;;16.90;99.90;;;;;;5093403;28;20299;-67
2021/08/23 05:23:49;;;;;;;22.27;18.80;;;17.00;99.90;;;;;;5093892;28;20221;-67
2021/08/23 05:26:15;;;;;;;24.30;19.17;;;17.20;99.90;;;;;;5093492;28;20204;-67
2021/08/23 05:28:40;;;;;;;22.60;20.17;;;17.20;99.90;;;;;;5093817;28;20162;-67
2021/08/23 05:31:06;;;;;;;21.67;19.37;;;17.30;99.90;;;;;;5093170;28;20639;-67
2021/08/23 05:33:32;;;;;;;25.50;19.93;;;17.40;99.90;;;;;;5093997;28;20203;-67
2021/08/23 05:35:57;;;;;;;22.97;19.43;;;17.50;99.90;;;;;;5093455;28;20169;-67
2021/08/23 05:38:23;;;;;;;20.97;17.73;;;17.60;99.90;;;;;;5093479;28;20174;-66
2021/08/23 05:40:49;;;;;;;21.27;18.33;;;17.70;99.90;;;;;;5092910;28;20181;-67
2021/08/23 05:43:14;;;;;;;21.50;17.20;;;17.80;99.90;;;;;;5080650;28;20661;-67
2021/08/23 05:45:43;;;;;;;21.30;18.87;;;17.70;99.90;;;;;;5093171;28;20194;-67
2021/08/23 05:48:10;;;;;;;23.30;17.90;;;17.80;99.90;;;;;;5093146;28;20161;-67
2021/08/23 05:50:36;;;;;;;19.93;17.83;;;17.80;99.90;;;;;;5092863;28;20582;-66
2021/08/23 05:53:01;;;;;;;20.33;18.23;;;17.80;99.90;;;;;;5093251;28;20178;-66
2021/08/23 05:55:27;;;;;;;18.03;16.13;;;17.90;99.90;;;;;;5093240;28;20255;-66
2021/08/23 05:57:52;;;;;;;22.77;16.37;;;18.00;99.90;;;;;;5093074;28;20178;-67
2021/08/23 06:00:19;;;;;;;20.73;16.33;;;18.10;99.90;;;;;;5081041;28;20540;-66
2021/08/23 06:02:45;;;;;;;17.83;15.97;;;18.10;99.90;;;;;;5091002;28;20218;-67
2021/08/23 06:05:11;;;;;;;17.80;16.07;;;18.20;99.90;;;;;;5092800;28;20685;-66
2021/08/23 06:07:37;;;;;;;16.97;15.17;;;18.30;99.90;;;;;;5092783;28;20177;-67
2021/08/23 06:10:04;;;;;;;17.20;15.50;;;18.40;99.90;;;;;;5092505;28;20611;-66
2021/08/23 06:12:29;;;;;;;17.90;16.13;;;18.60;99.90;;;;;;5092667;28;20673;-66
2021/08/23 06:14:55;;;;;;;18.80;15.83;;;18.70;99.90;;;;;;5091712;28;20189;-67
2021/08/23 06:17:21;;;;;;;19.23;17.23;;;18.80;99.90;;;;;;5092573;28;20188;-66
2021/08/23 06:19:46;;;;;;;17.27;15.40;;;19.00;99.90;;;;;;5092456;28;20166;-67
2021/08/23 06:22:12;;;;;;;18.37;15.67;;;18.90;99.90;;;;;;5092258;28;20177;-67
2021/08/23 06:24:38;;;;;;;18.27;16.30;;;18.90;99.90;;;;;;5092456;28;20228;-66
2021/08/23 06:27:04;;;;;;;16.50;14.63;;;18.70;99.90;;;;;;5092334;28;20197;-67
2021/08/23 06:29:29;;;;;;;18.73;15.80;;;18.60;99.90;;;;;;5092290;28;20174;-67
2021/08/23 06:31:55;;;;;;;16.70;15.10;;;18.60;99.90;;;;;;5092277;28;20200;-66
2021/08/23 06:34:21;;;;;;;17.30;15.60;;;18.80;99.90;;;;;;5091032;28;20247;-67
2021/08/23 06:36:46;;;;;;;17.10;15.33;;;18.90;99.90;;;;;;5092695;28;20598;-66
2021/08/23 06:39:12;;;;;;;18.20;16.37;;;19.00;99.90;;;;;;5092307;28;20261;-65
2021/08/23 06:41:38;;;;;;;18.90;17.03;;;19.00;99.90;;;;;;5091849;28;20174;-67
2021/08/23 06:44:04;;;;;;;19.00;17.13;;;18.90;99.90;;;;;;5091891;28;20266;-67
2021/08/23 06:46:29;;;;;;;20.23;16.70;;;18.80;99.90;;;;;;5092055;28;20197;-67
2021/08/23 06:48:55;;;;;;;19.93;17.43;;;18.60;99.90;;;;;;5092389;28;20252;-66
2021/08/23 06:51:22;;;;;;;20.37;16.67;;;18.50;99.90;;;;;;5091718;28;20246;-67
2021/08/23 06:53:48;;;;;;;18.90;16.67;;;18.60;99.90;;;;;;5090461;28;20167;-66
2021/08/23 06:56:14;;;;;;;18.93;16.53;;;18.60;99.90;;;;;;5091544;28;20181;-67
2021/08/23 06:58:40;;;;;;;20.53;17.03;;;18.60;99.90;;;;;;5092107;28;20646;-67
2021/08/23 07:01:05;;;;;;;20.13;17.93;;;18.60;99.90;;;;;;5091496;28;20264;-67
2021/08/23 07:03:31;;;;;;;19.80;17.73;;;18.70;99.90;;;;;;5091882;28;20248;-67
2021/08/23 07:05:59;;;;;;;19.27;17.07;;;18.80;99.90;;;;;;5090553;28;20666;-67
2021/08/23 07:08:25;;;;;;;21.20;17.80;;;19.00;99.90;;;;;;5091915;28;20168;-67
2021/08/23 07:10:51;;;;;;;18.50;16.50;;;18.90;99.90;;;;;;5091407;28;20177;-67
2021/08/23 07:13:16;;;;;;;20.50;17.63;;;18.80;99.90;;;;;;5091897;28;20539;-67
2021/08/23 07:15:42;;;;;;;18.63;16.37;;;18.80;99.90;;;;;;5090304;28;20280;-67
2021/08/23 07:18:08;;;;;;;22.10;17.17;;;18.70;99.90;;;;;;5091439;28;20548;-67
2021/08/23 07:20:33;;;;;;;19.00;17.00;;;18.60;99.90;;;;;;5088942;28;20185;-67
2021/08/23 07:22:59;;;;;;;19.33;17.13;;;18.60;99.90;;;;;;5091631;28;20696;-67
2021/08/23 07:25:24;;;;;;;22.70;18.50;;;18.50;99.90;;;;;;5089935;28;20216;-67
2021/08/23 07:27:50;;;;;;;23.10;19.73;;;18.40;99.90;;;;;;5091497;28;20201;-66
2021/08/23 07:30:16;;;;;;;22.53;19.40;;;18.40;99.90;;;;;;5090784;28;20173;-67
2021/08/23 07:32:43;;;;;;;24.30;20.03;;;18.30;99.90;;;;;;5091325;28;20664;-67
2021/08/23 07:35:08;;;;;;;24.27;19.83;;;18.40;99.90;;;;;;5091036;28;20602;-66
2021/08/23 07:37:37;;;;;;;21.90;18.77;;;18.40;99.90;;;;;;5091594;28;20173;-67
2021/08/23 07:40:03;;;;;;;23.70;18.37;;;18.60;99.90;;;;;;5090934;28;20261;-66
2021/08/23 07:42:29;;;;;;;23.07;20.50;;;18.80;99.90;;;;;;5091195;28;20167;-67
2021/08/23 07:44:55;;;;;;;24.67;20.47;;;19.00;99.90;;;;;;5091347;28;20201;-67
2021/08/23 07:47:20;;;;;;;22.73;20.30;;;19.20;99.90;;;;;;5089958;28;20208;-67
2021/08/23 07:49:46;;;;;;;21.67;19.37;;;19.40;99.90;;;;;;5091109;28;20662;-67
2021/08/23 07:52:12;;;;;;;25.63;20.60;;;19.70;99.90;;;;;;5090539;28;20178;-67
2021/08/23 07:54:37;;;;;;;23.60;18.97;;;20.00;99.90;;;;;;5091225;28;20273;-67
2021/08/23 07:57:04;;;;;;;23.17;19.83;;;20.40;99.90;;;;;;5091327;28;20234;-66
2021/08/23 07:59:30;;;;;;;21.67;19.27;;;20.60;99.90;;;;;;5090994;28;20174;-67
2021/08/23 08:01:55;;;;;;;23.50;21.00;;;20.60;99.90;;;;;;5091297;28;20170;-66
2021/08/23 08:04:21;;;;;;;25.10;19.30;;;20.80;99.90;;;;;;5090821;28;20251;-67
2021/08/23 08:06:47;;;;;;;21.57;18.43;;;21.00;99.90;;;;;;5091299;28;20205;-66
2021/08/23 08:09:12;;;;;;;20.03;18.13;;;21.20;99.90;;;;;;5090979;28;20174;-66
2021/08/23 08:11:38;;;;;;;19.40;17.27;;;21.40;99.90;;;;;;5091075;28;20169;-67
2021/08/23 08:14:04;;;;;;;19.57;16.83;;;21.60;99.90;;;;;;5091176;28;20211;-67
2021/08/23 08:16:30;;;;;;;22.03;17.83;;;21.80;99.90;;;;;;5089617;28;20602;-68
2021/08/23 08:18:55;;;;;;;18.13;16.17;;;21.60;99.90;;;;;;5091322;28;20188;-67
2021/08/23 08:21:22;;;;;;;17.63;15.80;;;21.50;99.90;;;;;;5090673;28;20632;-67
2021/08/23 08:23:53;;;;;;;18.57;15.77;;;21.40;99.90;;;;;;5091021;28;20173;-67
2021/08/23 08:26:20;;;;;;;16.53;14.77;;;21.40;99.90;;;;;;5090695;28;20278;-66
2021/08/23 08:28:45;;;;;;;16.63;14.93;;;21.50;99.90;;;;;;5089856;28;20180;-67
2021/08/23 08:31:11;;;;;;;16.67;14.97;;;21.40;99.90;;;;;;5090538;28;20173;-66
2021/08/23 08:33:36;;;;;;;16.50;14.90;;;21.30;99.90;;;;;;5091009;28;20178;-67
2021/08/23 08:36:02;;;;;;;16.67;15.03;;;21.30;99.90;;;;;;5090848;28;20260;-66
2021/08/23 08:38:28;;;;;;;17.27;15.57;;;21.20;99.90;;;;;;5092497;28;20234;-66
2021/08/23 08:40:58;;;;;;;18.87;16.97;;;21.30;99.90;;;;;;5093866;28;20204;-66
2021/08/23 08:43:23;;;;;;;21.27;19.27;;;21.40;99.90;;;;;;5093793;28;20297;-66
2021/08/23 08:45:49;;;;;;;19.38;17.02;;;21.50;99.90;;;;;;5094255;28;20217;-67
2021/08/23 08:48:16;;;;;;;19.10;17.10;;;21.40;99.90;;;;;;5094125;28;20655;-67
2021/08/23 08:50:42;;;;;;;20.23;17.57;;;21.40;99.90;;;;;;5094034;28;20178;-67
2021/08/23 08:53:08;;;;;;;18.93;16.97;;;21.50;99.90;;;;;;5094109;28;20192;-67
2021/08/23 08:55:37;;;;;;;20.17;18.07;;;21.30;99.90;;;;;;5093574;28;20197;-67
2021/08/23 08:58:05;;;;;;;26.70;23.73;;;21.20;99.90;;;;;;5094173;28;20176;-67
2021/08/23 09:00:32;;;;;;;27.27;22.67;;;20.90;99.90;;;;;;5092402;28;20654;-67
2021/08/23 09:03:00;;;;;;;26.70;23.53;;;20.60;99.90;;;;;;5094415;28;20185;-67
2021/08/23 09:05:37;;;;;;;34.53;25.73;;;20.30;99.90;;;;;;5093753;28;20796;-67
2021/08/23 09:08:03;;;;;;;31.57;24.30;;;19.70;99.90;;;;;;5093930;28;20165;-67
2021/08/23 09:10:31;;;;;;;37.20;27.33;;;19.40;99.90;;;;;;5093423;28;20647;-67
2021/08/23 09:13:06;;;;;;;36.73;26.17;;;19.30;99.90;;;;;;5093956;28;20632;-67
2021/08/23 09:15:33;;;;;;;37.83;27.07;;;19.20;99.90;;;;;;5092419;28;20189;-67
2021/08/23 09:18:02;;;;;;;39.83;28.47;;;19.20;99.90;;;;;;5093955;28;20174;-67
2021/08/23 09:20:28;;;;;;;33.37;25.73;;;19.40;99.90;;;;;;5093189;28;20166;-67
2021/08/23 09:23:04;;;;;;;37.90;27.60;;;19.60;99.90;;;;;;5093842;28;20173;-67
2021/08/23 09:25:30;;;;;;;31.83;25.83;;;19.80;99.90;;;;;;5093264;28;20278;-66
2021/08/23 09:28:06;;;;;;;26.90;22.90;;;20.00;99.90;;;;;;5093880;28;20166;-67
2021/08/23 09:30:33;;;;;;;22.67;19.93;;;20.20;99.90;;;;;;5093069;28;20169;-67
2021/08/23 09:33:01;;;;;;;23.17;18.37;;;20.60;99.90;;;;;;5093601;28;20173;-67
2021/08/23 09:35:31;;;;;;;20.90;18.60;;;20.70;99.90;;;;;;5092363;28;20599;-67
2021/08/23 09:37:56;;;;;;;16.70;15.00;;;20.90;99.90;;;;;;5093605;28;20639;-67
2021/08/23 09:40:28;;;;;;;16.63;14.80;;;21.00;99.90;;;;;;5092777;28;20178;-67
2021/08/23 09:43:12;;;;;;;15.80;14.37;;;21.20;99.90;;;;;;5093545;28;20173;-67
2021/08/23 09:45:44;;;;;;;18.53;15.03;;;21.40;99.90;;;;;;5093050;28;20201;-67
2021/08/23 09:48:09;;;;;;;14.67;13.27;;;21.60;99.90;;;;;;5093087;28;20173;-67
2021/08/23 09:50:41;;;;;;;13.23;12.03;;;21.60;99.90;;;;;;5092667;28;20269;-67
2021/08/23 09:53:10;;;;;;;14.17;12.80;;;21.30;99.90;;;;;;5093167;28;20162;-67
2021/08/23 09:55:38;;;;;;;13.00;11.90;;;21.40;99.90;;;;;;5092675;28;20193;-67
2021/08/23 09:58:06;;;;;;;13.07;11.93;;;21.30;99.90;;;;;;5093113;28;20182;-67
2021/08/23 10:00:32;;;;;;;11.60;10.60;;;21.40;99.90;;;;;;5092566;28;20185;-67
2021/08/23 10:03:01;;;;;;;14.20;12.73;;;21.50;99.90;;;;;;5093178;28;20183;-66
2021/08/23 10:05:27;;;;;;;13.33;12.13;;;21.70;99.90;;;;;;5092486;28;20197;-67
2021/08/23 10:07:54;;;;;;;12.50;11.33;;;21.70;99.90;;;;;;5092849;28;20253;-67
2021/08/23 10:10:21;;;;;;;12.80;11.60;;;22.00;99.90;;;;;;5090815;28;20180;-66
2021/08/23 10:12:47;;;;;;;12.65;11.35;;;21.90;99.90;;;;;;5092920;28;20487;-67
2021/08/23 10:15:13;;;;;;;12.15;10.98;;;22.10;99.90;;;;;;5092383;28;20186;-67
2021/08/23 10:17:39;;;;;;;12.70;11.50;;;22.50;99.90;;;;;;5092707;28;20260;-67
2021/08/23 10:20:10;;;;;;;12.50;11.20;;;23.30;99.90;;;;;;5092153;28;20173;-67
2021/08/23 10:22:38;;;;;;;10.20;9.20;;;24.10;99.90;;;;;;5092833;28;20166;-66
2021/08/23 10:25:05;;;;;;;10.07;9.05;;;24.90;99.90;;;;;;5098899;22;20228;-67
2021/08/23 10:27:36;;;;;;;10.52;9.63;;;25.50;99.90;;;;;;5092381;28;20288;-66
2021/08/23 10:30:02;;;;;;;9.55;8.75;;;25.70;99.90;;;;;;5091773;28;20180;-66
2021/08/23 10:32:36;;;;;;;10.18;9.30;;;25.50;99.90;;;;;;5092009;28;20177;-66
2021/08/23 10:35:21;;;;;;;10.18;8.35;;;26.00;99.90;;;;;;5091081;28;20200;-66
2021/08/23 10:37:48;;;;;;;8.15;7.45;;;25.70;99.90;;;;;;5090830;28;20553;-66
2021/08/23 10:40:14;;;;;;;8.60;7.80;;;26.00;99.90;;;;;;5091444;28;20181;-66
2021/08/23 10:42:47;;;;;;;9.32;8.57;;;26.10;99.90;;;;;;5092092;28;20665;-65
2021/08/23 10:45:16;;;;;;;8.98;8.27;;;25.70;99.90;;;;;;5091341;28;20582;-66
2021/08/23 10:47:46;;;;;;;9.27;8.48;;;24.80;99.90;;;;;;5092189;28;20226;-66
2021/08/23 10:50:25;;;;;;;9.50;8.63;;;24.40;99.90;;;;;;5091159;28;20180;-66
2021/08/23 10:52:53;;;;;;;9.75;8.93;;;23.80;99.90;;;;;;5092103;28;20173;-66
2021/08/23 10:55:21;;;;;;;10.30;9.35;;;23.10;99.90;;;;;;5091573;28;20197;-65
2021/08/23 10:57:47;;;;;;;9.43;8.50;;;22.90;99.90;;;;;;5092038;28;20252;-66
2021/08/23 11:00:17;;;;;;;9.98;9.10;;;23.10;99.90;;;;;;5090911;28;20615;-66
2021/08/23 11:02:43;;;;;;;10.32;9.40;;;23.40;99.90;;;;;;5091741;28;20172;-65
2021/08/23 11:05:14;;;;;;;9.80;8.95;;;24.00;99.90;;;;;;5091395;28;20674;-65
2021/08/23 11:07:47;;;;;;;9.77;8.98;;;24.30;99.90;;;;;;5091769;28;20201;-64
2021/08/23 11:10:22;;;;;;;9.30;8.43;;;24.40;99.90;;;;;;5089769;28;20180;-65
2021/08/23 11:12:49;;;;;;;8.88;8.07;;;24.90;99.90;;;;;;5091866;28;20175;-65
2021/08/23 11:15:27;;;;;;;9.05;8.35;;;25.20;99.90;;;;;;5091347;28;20193;-65
2021/08/23 11:17:55;;;;;;;9.32;8.40;;;25.50;99.90;;;;;;5090893;28;20252;-64
2021/08/23 11:20:25;;;;;;;8.88;8.07;;;25.20;99.90;;;;;;5090922;28;20185;-65
2021/08/23 11:23:01;;;;;;;11.10;10.07;;;25.00;99.90;;;;;;5091682;28;20170;-65
2021/08/23 11:25:31;;;;;;;10.00;9.07;;;24.30;99.90;;;;;;5091201;28;20697;-65
2021/08/23 11:27:58;;;;;;;8.95;8.20;;;24.00;99.90;;;;;;5091690;28;20172;-65
2021/08/23 11:30:50;;;;;;;12.05;10.57;;;23.70;99.90;;;;;;5090496;28;20186;-65
2021/08/23 11:33:28;;;;;;;10.02;9.13;;;23.70;99.90;;;;;;5088260;28;20185;-66
2021/08/23 11:35:57;;;;;;;11.23;9.75;;;24.10;99.90;;;;;;5070381;28;20205;-65
2021/08/23 11:38:32;;;;;;;10.73;9.82;;;24.20;99.90;;;;;;5070940;28;20170;-65
2021/08/23 11:40:58;;;;;;;9.77;8.80;;;24.10;99.90;;;;;;5070952;28;20177;-66
2021/08/23 11:43:28;;;;;;;13.55;10.30;;;24.00;99.90;;;;;;5070947;28;20239;-65
2021/08/23 11:45:55;;;;;;;10.20;9.25;;;24.00;99.90;;;;;;5090917;28;20247;-65
2021/08/23 11:48:22;;;;;;;14.15;10.50;;;24.00;99.90;;;;;;5090823;28;20169;-66
2021/08/23 11:50:48;;;;;;;13.23;10.98;;;23.70;99.90;;;;;;5090587;28;20270;-66
2021/08/23 11:53:14;;;;;;;11.95;10.10;;;23.90;99.90;;;;;;5091238;28;20237;-66
2021/08/23 11:55:43;;;;;;;11.65;10.60;;;24.00;99.90;;;;;;5091079;28;20243;-65
2021/08/23 11:58:11;;;;;;;12.18;11.02;;;23.90;99.90;;;;;;5091261;28;20170;-65
2021/08/23 12:00:38;;;;;;;12.55;11.15;;;23.80;99.90;;;;;;5090767;28;20188;-65
2021/08/23 12:03:15;;;;;;;12.30;11.18;;;23.70;99.90;;;;;;5091340;28;20162;-66
2021/08/23 12:05:45;;;;;;;11.73;10.63;;;23.90;99.90;;;;;;5091090;28;20205;-65
2021/08/23 12:08:30;;;;;;;12.60;11.48;;;24.00;99.90;;;;;;5091296;28;20272;-65
2021/08/23 12:11:00;;;;;;;13.35;12.05;;;23.90;99.90;;;;;;5090918;28;20183;-65
2021/08/23 12:13:35;;;;;;;11.02;9.98;;;23.70;99.90;;;;;;5092822;28;20161;-65
2021/08/23 12:16:02;;;;;;;12.20;11.15;;;23.40;99.90;;;;;;5094925;28;20208;-65
2021/08/23 12:18:35;;;;;;;12.07;10.98;;;23.30;99.90;;;;;;5093901;28;20181;-65
2021/08/23 12:21:30;;;;;;;11.57;10.50;;;23.30;99.90;;;;;;5094504;28;20230;-65
2021/08/23 12:23:58;;;;;;;11.40;10.40;;;23.40;99.90;;;;;;5094908;28;20525;-66
2021/08/23 12:26:35;;;;;;;11.80;10.70;;;23.50;99.90;;;;;;5094747;28;20208;-65
2021/08/23 12:29:16;;;;;;;11.02;10.05;;;23.60;99.90;;;;;;5094801;28;20162;-65